sensor_id;sensor_type;location;lat;lon;timestamp;temperature;humidity
23719;DHT22;43322;52.230;5.702;2023-06-10T00:01:50;20.00;87.80
23719;DHT22;43322;52.230;5.702;2023-06-10T00:04:20;20.00;89.60
23719;DHT22;43322;52.230;5.702;2023-06-10T00:06:47;19.90;90.20
23719;DHT22;43322;52.230;5.702;2023-06-10T00:09:15;19.90;86.10
23719;DHT22;43322;52.230;5.702;2023-06-10T00:11:42;19.90;84.60
23719;DHT22;43322;52.230;5.702;2023-06-10T00:14:10;19.90;85.20
23719;DHT22;43322;52.230;5.702;2023-06-10T00:16:37;19.90;88.50
23719;DHT22;43322;52.230;5.702;2023-06-10T00:19:04;19.90;89.10
23719;DHT22;43322;52.230;5.702;2023-06-10T00:21:32;19.80;89.80
23719;DHT22;43322;52.230;5.702;2023-06-10T00:24:03;19.80;89.00
23719;DHT22;43322;52.230;5.702;2023-06-10T00:26:30;19.70;88.70
23719;DHT22;43322;52.230;5.702;2023-06-10T00:28:57;19.70;86.60
23719;DHT22;43322;52.230;5.702;2023-06-10T00:31:25;19.70;89.50
23719;DHT22;43322;52.230;5.702;2023-06-10T00:33:52;19.70;89.60
23719;DHT22;43322;52.230;5.702;2023-06-10T00:36:19;19.60;91.10
23719;DHT22;43322;52.230;5.702;2023-06-10T00:38:46;19.60;92.50
23719;DHT22;43322;52.230;5.702;2023-06-10T00:41:13;19.50;91.30
23719;DHT22;43322;52.230;5.702;2023-06-10T00:43:40;19.50;92.40
23719;DHT22;43322;52.230;5.702;2023-06-10T00:46:07;19.40;91.70
23719;DHT22;43322;52.230;5.702;2023-06-10T00:48:35;19.40;92.60
23719;DHT22;43322;52.230;5.702;2023-06-10T00:51:01;19.40;94.20
23719;DHT22;43322;52.230;5.702;2023-06-10T00:53:28;19.30;94.30
23719;DHT22;43322;52.230;5.702;2023-06-10T00:55:55;19.30;93.40
23719;DHT22;43322;52.230;5.702;2023-06-10T00:58:23;19.20;92.90
23719;DHT22;43322;52.230;5.702;2023-06-10T01:00:50;19.20;93.70
23719;DHT22;43322;52.230;5.702;2023-06-10T01:03:17;19.20;93.00
23719;DHT22;43322;52.230;5.702;2023-06-10T01:05:50;19.20;92.10
23719;DHT22;43322;52.230;5.702;2023-06-10T01:08:28;19.20;92.60
23719;DHT22;43322;52.230;5.702;2023-06-10T01:11:05;19.20;93.30
23719;DHT22;43322;52.230;5.702;2023-06-10T01:13:36;19.20;92.50
23719;DHT22;43322;52.230;5.702;2023-06-10T01:16:04;19.20;92.30
23719;DHT22;43322;52.230;5.702;2023-06-10T01:18:31;19.20;92.10
23719;DHT22;43322;52.230;5.702;2023-06-10T01:20:59;19.10;93.00
23719;DHT22;43322;52.230;5.702;2023-06-10T01:23:27;19.10;92.20
23719;DHT22;43322;52.230;5.702;2023-06-10T01:25:59;19.10;92.20
23719;DHT22;43322;52.230;5.702;2023-06-10T01:28:30;19.10;93.40
23719;DHT22;43322;52.230;5.702;2023-06-10T01:31:04;19.00;92.00
23719;DHT22;43322;52.230;5.702;2023-06-10T01:33:37;19.00;91.50
23719;DHT22;43322;52.230;5.702;2023-06-10T01:36:06;19.00;93.20
23719;DHT22;43322;52.230;5.702;2023-06-10T01:38:40;19.00;93.20
23719;DHT22;43322;52.230;5.702;2023-06-10T01:41:09;19.00;93.20
23719;DHT22;43322;52.230;5.702;2023-06-10T01:43:37;19.00;92.90
23719;DHT22;43322;52.230;5.702;2023-06-10T01:46:05;19.00;93.40
23719;DHT22;43322;52.230;5.702;2023-06-10T01:48:31;18.90;93.70
23719;DHT22;43322;52.230;5.702;2023-06-10T01:50:58;18.90;93.60
23719;DHT22;43322;52.230;5.702;2023-06-10T01:53:25;18.90;92.60
23719;DHT22;43322;52.230;5.702;2023-06-10T01:55:53;18.90;93.20
23719;DHT22;43322;52.230;5.702;2023-06-10T01:58:20;18.80;91.10
23719;DHT22;43322;52.230;5.702;2023-06-10T02:00:46;18.80;91.90
23719;DHT22;43322;52.230;5.702;2023-06-10T02:03:13;18.80;92.40
23719;DHT22;43322;52.230;5.702;2023-06-10T02:05:41;18.80;92.50
23719;DHT22;43322;52.230;5.702;2023-06-10T02:08:07;18.80;91.50
23719;DHT22;43322;52.230;5.702;2023-06-10T02:10:34;18.80;92.40
23719;DHT22;43322;52.230;5.702;2023-06-10T02:13:02;18.80;91.90
23719;DHT22;43322;52.230;5.702;2023-06-10T02:15:29;18.70;91.30
23719;DHT22;43322;52.230;5.702;2023-06-10T02:17:55;18.70;92.20
23719;DHT22;43322;52.230;5.702;2023-06-10T02:20:23;18.70;92.30
23719;DHT22;43322;52.230;5.702;2023-06-10T02:22:50;18.70;92.40
23719;DHT22;43322;52.230;5.702;2023-06-10T02:25:17;18.70;91.80
23719;DHT22;43322;52.230;5.702;2023-06-10T02:27:43;18.70;91.60
23719;DHT22;43322;52.230;5.702;2023-06-10T02:30:12;18.60;92.10
23719;DHT22;43322;52.230;5.702;2023-06-10T02:32:39;18.70;92.50
23719;DHT22;43322;52.230;5.702;2023-06-10T02:35:07;18.60;91.50
23719;DHT22;43322;52.230;5.702;2023-06-10T02:37:37;18.60;91.70
23719;DHT22;43322;52.230;5.702;2023-06-10T02:40:05;18.60;92.00
23719;DHT22;43322;52.230;5.702;2023-06-10T02:42:32;18.50;92.00
23719;DHT22;43322;52.230;5.702;2023-06-10T02:44:59;18.50;91.60
23719;DHT22;43322;52.230;5.702;2023-06-10T02:47:27;18.40;91.90
23719;DHT22;43322;52.230;5.702;2023-06-10T02:49:54;18.50;92.10
23719;DHT22;43322;52.230;5.702;2023-06-10T02:52:21;18.40;91.80
23719;DHT22;43322;52.230;5.702;2023-06-10T02:54:48;18.40;92.20
23719;DHT22;43322;52.230;5.702;2023-06-10T02:57:15;18.40;92.50
23719;DHT22;43322;52.230;5.702;2023-06-10T02:59:41;18.40;92.50
23719;DHT22;43322;52.230;5.702;2023-06-10T03:02:08;18.30;92.30
23719;DHT22;43322;52.230;5.702;2023-06-10T03:04:38;18.30;92.90
23719;DHT22;43322;52.230;5.702;2023-06-10T03:07:04;18.20;92.50
23719;DHT22;43322;52.230;5.702;2023-06-10T03:09:32;18.30;92.90
23719;DHT22;43322;52.230;5.702;2023-06-10T03:11:59;18.20;93.60
23719;DHT22;43322;52.230;5.702;2023-06-10T03:14:26;18.20;93.30
23719;DHT22;43322;52.230;5.702;2023-06-10T03:16:52;18.20;93.50
23719;DHT22;43322;52.230;5.702;2023-06-10T03:19:19;18.10;93.70
23719;DHT22;43322;52.230;5.702;2023-06-10T03:21:49;18.10;93.90
23719;DHT22;43322;52.230;5.702;2023-06-10T03:24:16;18.10;94.20
23719;DHT22;43322;52.230;5.702;2023-06-10T03:26:43;18.10;94.80
23719;DHT22;43322;52.230;5.702;2023-06-10T03:29:09;18.00;94.90
23719;DHT22;43322;52.230;5.702;2023-06-10T03:31:36;18.00;95.00
23719;DHT22;43322;52.230;5.702;2023-06-10T03:34:04;18.00;95.60
23719;DHT22;43322;52.230;5.702;2023-06-10T03:36:30;18.00;95.70
23719;DHT22;43322;52.230;5.702;2023-06-10T03:38:58;18.00;95.70
23719;DHT22;43322;52.230;5.702;2023-06-10T03:41:25;17.90;95.80
23719;DHT22;43322;52.230;5.702;2023-06-10T03:43:52;17.90;96.20
23719;DHT22;43322;52.230;5.702;2023-06-10T03:46:18;17.90;96.10
23719;DHT22;43322;52.230;5.702;2023-06-10T03:48:45;17.90;96.50
23719;DHT22;43322;52.230;5.702;2023-06-10T03:51:12;17.90;96.50
23719;DHT22;43322;52.230;5.702;2023-06-10T03:53:38;17.90;96.90
23719;DHT22;43322;52.230;5.702;2023-06-10T03:56:06;17.90;97.10
23719;DHT22;43322;52.230;5.702;2023-06-10T03:58:33;17.90;97.20
23719;DHT22;43322;52.230;5.702;2023-06-10T04:01:00;17.90;97.60
23719;DHT22;43322;52.230;5.702;2023-06-10T04:03:26;17.90;97.60
23719;DHT22;43322;52.230;5.702;2023-06-10T04:05:54;17.90;98.10
23719;DHT22;43322;52.230;5.702;2023-06-10T04:08:20;17.90;98.20
23719;DHT22;43322;52.230;5.702;2023-06-10T04:10:47;17.90;98.80
23719;DHT22;43322;52.230;5.702;2023-06-10T04:13:15;17.90;98.70
23719;DHT22;43322;52.230;5.702;2023-06-10T04:15:42;17.90;98.80
23719;DHT22;43322;52.230;5.702;2023-06-10T04:18:09;17.90;99.20
23719;DHT22;43322;52.230;5.702;2023-06-10T04:20:36;17.90;99.40
23719;DHT22;43322;52.230;5.702;2023-06-10T04:23:03;18.00;99.70
23719;DHT22;43322;52.230;5.702;2023-06-10T04:25:30;18.00;99.90
23719;DHT22;43322;52.230;5.702;2023-06-10T04:27:56;18.00;99.90
23719;DHT22;43322;52.230;5.702;2023-06-10T04:30:24;18.00;99.90
23719;DHT22;43322;52.230;5.702;2023-06-10T04:32:51;18.00;99.90
23719;DHT22;43322;52.230;5.702;2023-06-10T04:35:18;18.00;99.90
23719;DHT22;43322;52.230;5.702;2023-06-10T04:37:45;18.00;99.90
23719;DHT22;43322;52.230;5.702;2023-06-10T04:40:12;18.00;99.90
23719;DHT22;43322;52.230;5.702;2023-06-10T04:42:39;18.10;99.90
23719;DHT22;43322;52.230;5.702;2023-06-10T04:45:07;18.10;99.90
23719;DHT22;43322;52.230;5.702;2023-06-10T04:47:35;18.10;99.90
23719;DHT22;43322;52.230;5.702;2023-06-10T04:50:02;18.10;99.90
23719;DHT22;43322;52.230;5.702;2023-06-10T04:52:29;18.20;99.90
23719;DHT22;43322;52.230;5.702;2023-06-10T04:54:57;18.20;99.90
23719;DHT22;43322;52.230;5.702;2023-06-10T04:57:24;18.20;99.90
23719;DHT22;43322;52.230;5.702;2023-06-10T04:59:51;18.30;99.90
23719;DHT22;43322;52.230;5.702;2023-06-10T05:02:18;18.20;99.90
23719;DHT22;43322;52.230;5.702;2023-06-10T05:04:46;18.30;99.90
23719;DHT22;43322;52.230;5.702;2023-06-10T05:07:13;18.30;99.90
23719;DHT22;43322;52.230;5.702;2023-06-10T05:09:40;18.30;99.90
23719;DHT22;43322;52.230;5.702;2023-06-10T05:12:07;18.40;99.90
23719;DHT22;43322;52.230;5.702;2023-06-10T05:14:34;18.40;99.90
23719;DHT22;43322;52.230;5.702;2023-06-10T05:17:01;18.40;99.90
23719;DHT22;43322;52.230;5.702;2023-06-10T05:19:27;18.50;99.90
23719;DHT22;43322;52.230;5.702;2023-06-10T05:21:55;18.50;99.90
23719;DHT22;43322;52.230;5.702;2023-06-10T05:24:22;18.50;99.90
23719;DHT22;43322;52.230;5.702;2023-06-10T05:26:49;18.50;99.90
23719;DHT22;43322;52.230;5.702;2023-06-10T05:29:16;18.60;99.90
23719;DHT22;43322;52.230;5.702;2023-06-10T05:31:43;18.40;99.90
23719;DHT22;43322;52.230;5.702;2023-06-10T05:34:09;18.70;99.90
23719;DHT22;43322;52.230;5.702;2023-06-10T05:36:36;18.80;99.90
23719;DHT22;43322;52.230;5.702;2023-06-10T05:39:04;18.80;99.90
23719;DHT22;43322;52.230;5.702;2023-06-10T05:41:31;18.80;99.90
23719;DHT22;43322;52.230;5.702;2023-06-10T05:43:58;18.80;99.90
23719;DHT22;43322;52.230;5.702;2023-06-10T05:46:24;18.80;99.90
23719;DHT22;43322;52.230;5.702;2023-06-10T05:48:51;18.80;99.90
23719;DHT22;43322;52.230;5.702;2023-06-10T05:51:18;18.80;99.90
23719;DHT22;43322;52.230;5.702;2023-06-10T05:53:45;18.80;99.90
23719;DHT22;43322;52.230;5.702;2023-06-10T05:56:13;18.80;99.90
23719;DHT22;43322;52.230;5.702;2023-06-10T05:58:40;18.80;99.90
23719;DHT22;43322;52.230;5.702;2023-06-10T06:01:06;18.90;99.90
23719;DHT22;43322;52.230;5.702;2023-06-10T06:03:33;19.00;99.90
23719;DHT22;43322;52.230;5.702;2023-06-10T06:06:00;19.00;99.90
23719;DHT22;43322;52.230;5.702;2023-06-10T06:08:26;19.00;99.90
23719;DHT22;43322;52.230;5.702;2023-06-10T06:10:53;19.10;99.90
23719;DHT22;43322;52.230;5.702;2023-06-10T06:13:21;19.20;99.90
23719;DHT22;43322;52.230;5.702;2023-06-10T06:15:48;19.20;99.90
23719;DHT22;43322;52.230;5.702;2023-06-10T06:18:15;19.20;99.90
23719;DHT22;43322;52.230;5.702;2023-06-10T06:20:41;19.30;99.90
23719;DHT22;43322;52.230;5.702;2023-06-10T06:23:08;19.40;99.90
23719;DHT22;43322;52.230;5.702;2023-06-10T06:25:35;19.50;99.90
23719;DHT22;43322;52.230;5.702;2023-06-10T06:28:04;19.50;99.90
23719;DHT22;43322;52.230;5.702;2023-06-10T06:30:32;19.60;99.90
23719;DHT22;43322;52.230;5.702;2023-06-10T06:32:59;19.60;99.90
23719;DHT22;43322;52.230;5.702;2023-06-10T06:35:25;19.70;99.90
23719;DHT22;43322;52.230;5.702;2023-06-10T06:37:52;19.80;99.90
23719;DHT22;43322;52.230;5.702;2023-06-10T06:40:18;19.90;99.90
23719;DHT22;43322;52.230;5.702;2023-06-10T06:42:45;20.00;99.90
23719;DHT22;43322;52.230;5.702;2023-06-10T06:45:12;20.10;99.50
23719;DHT22;43322;52.230;5.702;2023-06-10T06:47:40;20.20;99.90
23719;DHT22;43322;52.230;5.702;2023-06-10T06:50:09;20.20;99.90
23719;DHT22;43322;52.230;5.702;2023-06-10T06:52:35;20.30;99.90
23719;DHT22;43322;52.230;5.702;2023-06-10T06:55:03;20.40;98.20
23719;DHT22;43322;52.230;5.702;2023-06-10T06:57:29;20.50;98.30
23719;DHT22;43322;52.230;5.702;2023-06-10T06:59:56;20.60;98.70
23719;DHT22;43322;52.230;5.702;2023-06-10T07:02:23;20.60;98.30
23719;DHT22;43322;52.230;5.702;2023-06-10T07:04:51;20.70;98.20
23719;DHT22;43322;52.230;5.702;2023-06-10T07:07:20;20.70;98.30
23719;DHT22;43322;52.230;5.702;2023-06-10T07:09:47;20.90;97.30
23719;DHT22;43322;52.230;5.702;2023-06-10T07:12:14;21.00;97.40
23719;DHT22;43322;52.230;5.702;2023-06-10T07:14:41;21.00;96.50
23719;DHT22;43322;52.230;5.702;2023-06-10T07:17:07;21.20;96.60
23719;DHT22;43322;52.230;5.702;2023-06-10T07:19:34;21.30;95.70
23719;DHT22;43322;52.230;5.702;2023-06-10T07:22:02;21.40;94.90
23719;DHT22;43322;52.230;5.702;2023-06-10T07:24:29;21.50;96.10
23719;DHT22;43322;52.230;5.702;2023-06-10T07:26:56;21.60;94.50
23719;DHT22;43322;52.230;5.702;2023-06-10T07:29:22;21.60;93.70
23719;DHT22;43322;52.230;5.702;2023-06-10T07:31:49;21.70;93.10
23719;DHT22;43322;52.230;5.702;2023-06-10T07:34:16;21.70;94.00
23719;DHT22;43322;52.230;5.702;2023-06-10T07:36:42;21.80;93.00
23719;DHT22;43322;52.230;5.702;2023-06-10T07:39:11;21.90;91.90
23719;DHT22;43322;52.230;5.702;2023-06-10T07:41:37;22.00;91.90
23719;DHT22;43322;52.230;5.702;2023-06-10T07:44:04;22.10;90.50
23719;DHT22;43322;52.230;5.702;2023-06-10T07:46:31;22.10;89.90
23719;DHT22;43322;52.230;5.702;2023-06-10T07:48:57;22.30;90.40
23719;DHT22;43322;52.230;5.702;2023-06-10T07:51:24;22.40;90.00
23719;DHT22;43322;52.230;5.702;2023-06-10T07:53:51;22.50;90.40
23719;DHT22;43322;52.230;5.702;2023-06-10T07:56:19;22.60;90.40
23719;DHT22;43322;52.230;5.702;2023-06-10T07:58:47;22.70;88.20
23719;DHT22;43322;52.230;5.702;2023-06-10T08:01:13;22.80;87.70
23719;DHT22;43322;52.230;5.702;2023-06-10T08:03:40;22.90;86.40
23719;DHT22;43322;52.230;5.702;2023-06-10T08:06:07;23.00;86.40
23719;DHT22;43322;52.230;5.702;2023-06-10T08:08:33;23.00;87.40
23719;DHT22;43322;52.230;5.702;2023-06-10T08:11:05;23.10;85.40
23719;DHT22;43322;52.230;5.702;2023-06-10T08:13:33;23.20;86.60
23719;DHT22;43322;52.230;5.702;2023-06-10T08:16:00;23.30;84.20
23719;DHT22;43322;52.230;5.702;2023-06-10T08:18:27;23.50;85.40
23719;DHT22;43322;52.230;5.702;2023-06-10T08:20:53;23.50;81.30
23719;DHT22;43322;52.230;5.702;2023-06-10T08:23:20;23.60;79.00
23719;DHT22;43322;52.230;5.702;2023-06-10T08:25:47;23.60;79.70
23719;DHT22;43322;52.230;5.702;2023-06-10T08:28:14;23.80;79.10
23719;DHT22;43322;52.230;5.702;2023-06-10T08:30:42;23.90;77.10
23719;DHT22;43322;52.230;5.702;2023-06-10T08:33:09;23.90;74.60
23719;DHT22;43322;52.230;5.702;2023-06-10T08:35:36;24.00;73.60
23719;DHT22;43322;52.230;5.702;2023-06-10T08:38:02;24.00;72.00
23719;DHT22;43322;52.230;5.702;2023-06-10T08:40:29;24.20;74.00
23719;DHT22;43322;52.230;5.702;2023-06-10T08:43:02;24.40;72.10
23719;DHT22;43322;52.230;5.702;2023-06-10T08:45:30;24.60;71.10
23719;DHT22;43322;52.230;5.702;2023-06-10T08:47:59;24.80;70.90
23719;DHT22;43322;52.230;5.702;2023-06-10T08:50:28;25.00;70.80
23719;DHT22;43322;52.230;5.702;2023-06-10T08:52:57;25.20;66.80
23719;DHT22;43322;52.230;5.702;2023-06-10T08:55:29;25.40;66.20
23719;DHT22;43322;52.230;5.702;2023-06-10T08:57:57;25.60;64.50
23719;DHT22;43322;52.230;5.702;2023-06-10T09:00:25;25.80;65.30
23719;DHT22;43322;52.230;5.702;2023-06-10T09:02:52;25.80;64.90
23719;DHT22;43322;52.230;5.702;2023-06-10T09:05:20;26.00;63.00
23719;DHT22;43322;52.230;5.702;2023-06-10T09:07:48;26.20;61.90
23719;DHT22;43322;52.230;5.702;2023-06-10T09:10:15;26.40;64.50
23719;DHT22;43322;52.230;5.702;2023-06-10T09:12:42;26.60;63.50
23719;DHT22;43322;52.230;5.702;2023-06-10T09:15:09;26.80;63.20
23719;DHT22;43322;52.230;5.702;2023-06-10T09:17:37;26.80;62.80
23719;DHT22;43322;52.230;5.702;2023-06-10T09:20:07;26.80;56.70
23719;DHT22;43322;52.230;5.702;2023-06-10T09:22:35;26.80;57.40
23719;DHT22;43322;52.230;5.702;2023-06-10T09:25:03;26.90;60.60
23719;DHT22;43322;52.230;5.702;2023-06-10T09:27:31;27.10;59.40
23719;DHT22;43322;52.230;5.702;2023-06-10T09:29:58;27.10;58.50
23719;DHT22;43322;52.230;5.702;2023-06-10T09:32:25;27.30;58.10
23719;DHT22;43322;52.230;5.702;2023-06-10T09:34:53;27.60;58.10
23719;DHT22;43322;52.230;5.702;2023-06-10T09:37:20;27.70;56.40
23719;DHT22;43322;52.230;5.702;2023-06-10T09:40:01;27.80;55.40
23719;DHT22;43322;52.230;5.702;2023-06-10T09:42:32;27.90;51.90
23719;DHT22;43322;52.230;5.702;2023-06-10T09:44:59;27.90;53.50
23719;DHT22;43322;52.230;5.702;2023-06-10T09:47:26;28.00;52.90
23719;DHT22;43322;52.230;5.702;2023-06-10T09:49:52;28.20;52.50
23719;DHT22;43322;52.230;5.702;2023-06-10T09:52:21;28.30;50.40
23719;DHT22;43322;52.230;5.702;2023-06-10T09:54:49;28.50;50.00
23719;DHT22;43322;52.230;5.702;2023-06-10T09:57:19;28.50;47.70
23719;DHT22;43322;52.230;5.702;2023-06-10T09:59:45;28.90;48.10
23719;DHT22;43322;52.230;5.702;2023-06-10T10:02:15;29.20;45.70
23719;DHT22;43322;52.230;5.702;2023-06-10T10:04:42;29.40;45.60
23719;DHT22;43322;52.230;5.702;2023-06-10T10:07:09;29.80;44.30
23719;DHT22;43322;52.230;5.702;2023-06-10T10:09:36;30.10;44.50
23719;DHT22;43322;52.230;5.702;2023-06-10T10:12:08;30.50;42.10
23719;DHT22;43322;52.230;5.702;2023-06-10T10:14:37;30.60;41.70
23719;DHT22;43322;52.230;5.702;2023-06-10T10:17:07;30.80;39.70
23719;DHT22;43322;52.230;5.702;2023-06-10T10:19:46;31.10;38.00
23719;DHT22;43322;52.230;5.702;2023-06-10T10:22:18;31.40;38.80
23719;DHT22;43322;52.230;5.702;2023-06-10T10:24:49;31.70;37.70
23719;DHT22;43322;52.230;5.702;2023-06-10T10:27:20;31.90;35.10
23719;DHT22;43322;52.230;5.702;2023-06-10T10:29:52;32.30;37.70
23719;DHT22;43322;52.230;5.702;2023-06-10T10:32:23;32.30;37.90
23719;DHT22;43322;52.230;5.702;2023-06-10T10:34:58;32.70;38.80
23719;DHT22;43322;52.230;5.702;2023-06-10T10:37:28;32.80;38.60
23719;DHT22;43322;52.230;5.702;2023-06-10T10:39:55;33.00;36.50
23719;DHT22;43322;52.230;5.702;2023-06-10T10:42:23;33.20;34.40
23719;DHT22;43322;52.230;5.702;2023-06-10T10:44:51;33.30;34.90
23719;DHT22;43322;52.230;5.702;2023-06-10T10:47:21;33.70;36.60
23719;DHT22;43322;52.230;5.702;2023-06-10T10:49:50;34.00;35.90
23719;DHT22;43322;52.230;5.702;2023-06-10T10:52:17;34.30;36.20
23719;DHT22;43322;52.230;5.702;2023-06-10T10:54:45;34.20;31.40
23719;DHT22;43322;52.230;5.702;2023-06-10T10:57:14;34.50;34.10
23719;DHT22;43322;52.230;5.702;2023-06-10T11:00:00;34.60;30.90
23719;DHT22;43322;52.230;5.702;2023-06-10T11:02:40;34.70;35.30
23719;DHT22;43322;52.230;5.702;2023-06-10T11:05:09;34.90;33.90
23719;DHT22;43322;52.230;5.702;2023-06-10T11:07:36;35.20;33.60
23719;DHT22;43322;52.230;5.702;2023-06-10T11:10:06;35.50;34.30
23719;DHT22;43322;52.230;5.702;2023-06-10T11:12:51;35.70;33.50
23719;DHT22;43322;52.230;5.702;2023-06-10T11:15:24;35.80;32.30
23719;DHT22;43322;52.230;5.702;2023-06-10T11:18:11;36.00;33.20
23719;DHT22;43322;52.230;5.702;2023-06-10T11:20:57;36.00;32.10
23719;DHT22;43322;52.230;5.702;2023-06-10T11:23:26;36.00;30.20
23719;DHT22;43322;52.230;5.702;2023-06-10T11:29:09;36.20;30.70
23719;DHT22;43322;52.230;5.702;2023-06-10T11:31:45;36.40;30.20
23719;DHT22;43322;52.230;5.702;2023-06-10T11:34:13;36.30;29.60
23719;DHT22;43322;52.230;5.702;2023-06-10T11:36:41;36.30;30.70
23719;DHT22;43322;52.230;5.702;2023-06-10T11:39:10;36.40;30.00
23719;DHT22;43322;52.230;5.702;2023-06-10T11:41:38;36.60;30.00
23719;DHT22;43322;52.230;5.702;2023-06-10T11:44:08;36.60;28.60
23719;DHT22;43322;52.230;5.702;2023-06-10T11:46:36;36.60;29.20
23719;DHT22;43322;52.230;5.702;2023-06-10T11:49:05;36.60;29.30
23719;DHT22;43322;52.230;5.702;2023-06-10T11:51:34;36.80;29.80
23719;DHT22;43322;52.230;5.702;2023-06-10T11:54:02;36.90;28.80
23719;DHT22;43322;52.230;5.702;2023-06-10T11:56:30;36.90;27.80
23719;DHT22;43322;52.230;5.702;2023-06-10T11:58:58;37.10;29.60
23719;DHT22;43322;52.230;5.702;2023-06-10T12:01:30;37.20;28.00
23719;DHT22;43322;52.230;5.702;2023-06-10T12:03:58;37.10;27.00
23719;DHT22;43322;52.230;5.702;2023-06-10T12:06:26;37.20;28.10
23719;DHT22;43322;52.230;5.702;2023-06-10T12:08:54;37.20;27.70
23719;DHT22;43322;52.230;5.702;2023-06-10T12:11:21;37.30;25.50
23719;DHT22;43322;52.230;5.702;2023-06-10T12:13:49;37.30;27.20
23719;DHT22;43322;52.230;5.702;2023-06-10T12:16:16;37.10;27.40
23719;DHT22;43322;52.230;5.702;2023-06-10T12:18:44;37.20;26.80
23719;DHT22;43322;52.230;5.702;2023-06-10T12:21:23;37.40;26.50
23719;DHT22;43322;52.230;5.702;2023-06-10T12:24:02;37.40;26.40
23719;DHT22;43322;52.230;5.702;2023-06-10T12:26:40;37.50;26.20
23719;DHT22;43322;52.230;5.702;2023-06-10T12:29:20;37.20;24.60
23719;DHT22;43322;52.230;5.702;2023-06-10T12:31:56;37.20;25.00
23719;DHT22;43322;52.230;5.702;2023-06-10T12:34:34;37.40;23.60
23719;DHT22;43322;52.230;5.702;2023-06-10T12:37:02;37.30;23.30
23719;DHT22;43322;52.230;5.702;2023-06-10T12:39:32;37.50;23.20
23719;DHT22;43322;52.230;5.702;2023-06-10T12:42:00;37.50;23.90
23719;DHT22;43322;52.230;5.702;2023-06-10T12:44:32;37.30;23.70
23719;DHT22;43322;52.230;5.702;2023-06-10T12:46:59;37.60;24.90
23719;DHT22;43322;52.230;5.702;2023-06-10T12:49:27;37.60;23.30
23719;DHT22;43322;52.230;5.702;2023-06-10T12:51:54;37.70;23.20
23719;DHT22;43322;52.230;5.702;2023-06-10T12:54:21;37.70;22.50
23719;DHT22;43322;52.230;5.702;2023-06-10T12:56:49;37.80;23.60
23719;DHT22;43322;52.230;5.702;2023-06-10T12:59:16;37.70;22.60
23719;DHT22;43322;52.230;5.702;2023-06-10T13:01:43;37.60;23.80
23719;DHT22;43322;52.230;5.702;2023-06-10T13:04:10;37.80;23.50
23719;DHT22;43322;52.230;5.702;2023-06-10T13:06:37;37.90;22.60
23719;DHT22;43322;52.230;5.702;2023-06-10T13:09:08;37.90;22.40
23719;DHT22;43322;52.230;5.702;2023-06-10T13:11:34;38.00;22.90
23719;DHT22;43322;52.230;5.702;2023-06-10T13:14:04;37.90;22.90
23719;DHT22;43322;52.230;5.702;2023-06-10T13:16:32;37.80;21.90
23719;DHT22;43322;52.230;5.702;2023-06-10T13:18:59;37.80;21.00
23719;DHT22;43322;52.230;5.702;2023-06-10T13:21:28;37.60;21.50
23719;DHT22;43322;52.230;5.702;2023-06-10T13:23:54;37.60;22.50
23719;DHT22;43322;52.230;5.702;2023-06-10T13:26:21;37.50;20.50
23719;DHT22;43322;52.230;5.702;2023-06-10T13:28:48;37.60;21.90
23719;DHT22;43322;52.230;5.702;2023-06-10T13:31:16;37.70;23.80
23719;DHT22;43322;52.230;5.702;2023-06-10T13:33:43;37.70;22.30
23719;DHT22;43322;52.230;5.702;2023-06-10T13:36:10;37.70;22.60
23719;DHT22;43322;52.230;5.702;2023-06-10T13:38:37;37.40;21.50
23719;DHT22;43322;52.230;5.702;2023-06-10T13:41:04;37.40;21.90
23719;DHT22;43322;52.230;5.702;2023-06-10T13:43:31;37.20;20.40
23719;DHT22;43322;52.230;5.702;2023-06-10T13:45:57;36.70;20.50
23719;DHT22;43322;52.230;5.702;2023-06-10T13:48:25;36.90;21.30
23719;DHT22;43322;52.230;5.702;2023-06-10T13:50:52;36.90;20.40
23719;DHT22;43322;52.230;5.702;2023-06-10T13:53:19;37.00;19.80
23719;DHT22;43322;52.230;5.702;2023-06-10T13:55:46;36.90;21.30
23719;DHT22;43322;52.230;5.702;2023-06-10T13:58:12;37.10;20.70
23719;DHT22;43322;52.230;5.702;2023-06-10T14:00:39;36.80;21.10
23719;DHT22;43322;52.230;5.702;2023-06-10T14:03:06;36.60;28.00
23719;DHT22;43322;52.230;5.702;2023-06-10T14:05:34;36.50;18.70
23719;DHT22;43322;52.230;5.702;2023-06-10T14:08:01;36.30;20.20
23719;DHT22;43322;52.230;5.702;2023-06-10T14:10:28;36.40;20.70
23719;DHT22;43322;52.230;5.702;2023-06-10T14:12:55;36.20;20.10
23719;DHT22;43322;52.230;5.702;2023-06-10T14:15:21;36.40;22.60
23719;DHT22;43322;52.230;5.702;2023-06-10T14:17:48;36.40;23.60
23719;DHT22;43322;52.230;5.702;2023-06-10T14:20:15;35.90;18.60
23719;DHT22;43322;52.230;5.702;2023-06-10T14:22:43;35.80;19.50
23719;DHT22;43322;52.230;5.702;2023-06-10T14:25:09;35.80;24.60
23719;DHT22;43322;52.230;5.702;2023-06-10T14:27:37;35.70;19.90
23719;DHT22;43322;52.230;5.702;2023-06-10T14:30:05;35.80;20.90
23719;DHT22;43322;52.230;5.702;2023-06-10T14:32:31;35.60;18.20
23719;DHT22;43322;52.230;5.702;2023-06-10T14:34:58;35.20;18.10
23719;DHT22;43322;52.230;5.702;2023-06-10T14:37:25;35.40;19.50
23719;DHT22;43322;52.230;5.702;2023-06-10T14:39:53;35.50;19.80
23719;DHT22;43322;52.230;5.702;2023-06-10T14:42:20;35.50;18.90
23719;DHT22;43322;52.230;5.702;2023-06-10T14:44:46;35.60;18.60
23719;DHT22;43322;52.230;5.702;2023-06-10T14:47:13;35.60;20.00
23719;DHT22;43322;52.230;5.702;2023-06-10T14:49:40;35.50;20.00
23719;DHT22;43322;52.230;5.702;2023-06-10T14:52:09;35.50;18.30
23719;DHT22;43322;52.230;5.702;2023-06-10T14:54:36;35.40;18.80
23719;DHT22;43322;52.230;5.702;2023-06-10T14:57:05;35.50;21.80
23719;DHT22;43322;52.230;5.702;2023-06-10T14:59:32;35.30;20.10
23719;DHT22;43322;52.230;5.702;2023-06-10T15:01:59;35.20;17.90
23719;DHT22;43322;52.230;5.702;2023-06-10T15:04:26;35.20;17.10
23719;DHT22;43322;52.230;5.702;2023-06-10T15:06:53;35.10;17.70
23719;DHT22;43322;52.230;5.702;2023-06-10T15:09:20;35.30;17.40
23719;DHT22;43322;52.230;5.702;2023-06-10T15:11:47;35.10;16.80
23719;DHT22;43322;52.230;5.702;2023-06-10T15:14:15;35.20;16.40
23719;DHT22;43322;52.230;5.702;2023-06-10T15:16:42;35.30;16.60
23719;DHT22;43322;52.230;5.702;2023-06-10T15:19:09;35.20;15.50
23719;DHT22;43322;52.230;5.702;2023-06-10T15:21:35;35.10;15.80
23719;DHT22;43322;52.230;5.702;2023-06-10T15:24:03;35.30;17.00
23719;DHT22;43322;52.230;5.702;2023-06-10T15:26:30;35.50;17.00
23719;DHT22;43322;52.230;5.702;2023-06-10T15:28:56;35.60;16.10
23719;DHT22;43322;52.230;5.702;2023-06-10T15:31:24;35.30;16.20
23719;DHT22;43322;52.230;5.702;2023-06-10T15:33:51;35.40;16.60
23719;DHT22;43322;52.230;5.702;2023-06-10T15:36:18;35.40;19.20
23719;DHT22;43322;52.230;5.702;2023-06-10T15:38:44;35.50;16.90